createdAt,value
2018-12-05T00:01:39.438Z,101656.42
2018-12-05T00:04:08.481Z,101658.09
2018-12-05T00:06:37.531Z,101659.23
2018-12-05T00:09:06.601Z,101663.16
2018-12-05T00:11:35.655Z,101665.77
2018-12-05T00:14:04.689Z,101676.94
2018-12-05T00:16:33.775Z,101670.68
2018-12-05T00:19:02.814Z,101672.95
2018-12-05T00:21:32.885Z,101676.63
2018-12-05T00:24:01.965Z,101669.45
2018-12-05T00:26:31.002Z,101675.53
2018-12-05T00:29:00.050Z,101667.91
2018-12-05T00:31:29.113Z,101668.53
2018-12-05T00:33:58.159Z,101666.75
2018-12-05T00:36:27.198Z,101674.13
2018-12-05T00:38:56.283Z,101667.73
2018-12-05T00:41:37.078Z,101675.30
2018-12-05T00:44:06.154Z,101675.55
2018-12-05T00:46:35.202Z,101685.59
2018-12-05T00:49:04.246Z,101695.30
2018-12-05T00:57:28.052Z,101705.45
2018-12-05T00:59:57.103Z,101716.28
2018-12-05T01:02:26.146Z,101715.36
2018-12-05T01:04:55.232Z,101715.09
2018-12-05T01:07:24.260Z,101721.89
2018-12-05T01:09:53.289Z,101719.64
2018-12-05T01:12:22.426Z,101726.48
2018-12-05T01:14:51.465Z,101731.13
2018-12-05T01:17:20.512Z,101731.81
2018-12-05T01:19:49.588Z,101739.05
2018-12-05T01:22:18.647Z,101738.72
2018-12-05T01:24:47.687Z,101745.34
2018-12-05T01:27:16.762Z,101742.66
2018-12-05T01:29:45.801Z,101741.59
2018-12-05T01:32:14.839Z,101746.22
2018-12-05T01:34:43.903Z,101750.48
2018-12-05T01:37:12.929Z,101747.02
2018-12-05T01:39:41.963Z,101754.89
2018-12-05T01:42:11.069Z,101755.70
2018-12-05T01:44:40.112Z,101757.80
2018-12-05T01:47:09.150Z,101759.09
2018-12-05T01:49:38.224Z,101755.78
2018-12-05T01:52:07.270Z,101766.12
2018-12-05T01:54:36.310Z,101769.80
2018-12-05T01:57:05.374Z,101776.95
2018-12-05T01:59:34.426Z,101778.48
2018-12-05T02:02:03.476Z,101786.94
2018-12-05T02:04:33.012Z,101782.72
2018-12-05T02:07:02.055Z,101787.13
2018-12-05T02:09:31.106Z,101784.06
2018-12-05T02:12:00.175Z,101788.63
2018-12-05T02:14:29.262Z,101792.14
2018-12-05T02:16:58.297Z,101796.40
2018-12-05T02:19:27.365Z,101802.06
2018-12-05T02:21:56.426Z,101805.80
2018-12-05T02:24:25.487Z,101811.26
2018-12-05T02:26:54.572Z,101816.40
2018-12-05T02:29:23.616Z,101817.55
2018-12-05T02:31:52.653Z,101821.66
2018-12-05T02:34:21.736Z,101818.46
2018-12-05T02:36:50.774Z,101824.10
2018-12-05T02:39:19.816Z,101830.83
2018-12-05T02:41:48.883Z,101828.72
2018-12-05T02:44:17.937Z,101830.12
2018-12-05T02:46:46.983Z,101835.59
2018-12-05T02:49:16.081Z,101838.59
2018-12-05T02:51:50.111Z,101842.52
2018-12-05T02:54:19.195Z,101843.87
2018-12-05T02:56:48.237Z,101847.55
2018-12-05T02:59:17.276Z,101851.11
2018-12-05T03:01:46.339Z,101856.72
2018-12-05T03:04:15.386Z,101856.39
2018-12-05T03:06:44.433Z,101856.20
2018-12-05T03:09:13.624Z,101865.37
2018-12-05T03:11:42.667Z,101864.97
2018-12-05T03:14:11.708Z,101867.74
2018-12-05T03:16:40.820Z,101878.24
2018-12-05T03:19:09.851Z,101883.87
2018-12-05T03:21:38.899Z,101891.23
2018-12-05T03:24:07.967Z,101887.34
2018-12-05T03:26:37.008Z,101888.05
2018-12-05T03:29:06.782Z,101897.70
2018-12-05T03:31:35.155Z,101900.69
2018-12-05T03:34:04.205Z,101907.24
2018-12-05T03:36:33.240Z,101908.63
2018-12-05T03:39:02.307Z,101908.53
2018-12-05T03:41:31.344Z,101906.34
2018-12-05T03:44:00.405Z,101911.97
2018-12-05T03:46:29.471Z,101918.59
2018-12-05T03:48:58.516Z,101923.43
2018-12-05T03:51:27.567Z,101928.87
2018-12-05T03:53:56.660Z,101930.95
2018-12-05T03:56:25.706Z,101939.72
2018-12-05T03:58:54.760Z,101946.50
2018-12-05T04:01:24.095Z,101949.55
2018-12-05T04:03:53.138Z,101951.38
2018-12-05T04:06:22.176Z,101947.08
2018-12-05T04:08:51.258Z,101947.69
2018-12-05T04:14:16.798Z,101970.67
2018-12-05T04:16:45.836Z,101969.02
2018-12-05T04:19:14.861Z,101968.80
2018-12-05T04:21:43.923Z,101970.30
2018-12-05T04:24:12.974Z,101982.84
2018-12-05T04:26:42.020Z,101979.28
2018-12-05T04:29:11.089Z,101985.45
2018-12-05T04:31:40.129Z,101985.25
2018-12-05T04:34:09.191Z,101986.69
2018-12-05T04:36:38.391Z,101994.23
2018-12-05T04:39:07.445Z,101996.08
2018-12-05T04:41:36.499Z,101997.58
2018-12-05T04:44:05.578Z,101997.95
2018-12-05T04:46:34.636Z,102004.19
2018-12-05T04:49:03.686Z,102006.87
2018-12-05T04:51:43.577Z,102001.19
2018-12-05T04:54:12.635Z,102017.95
2018-12-05T04:56:41.684Z,102014.09
2018-12-05T04:59:10.853Z,102018.14
2018-12-05T05:01:40.864Z,102024.92
2018-12-05T05:04:09.918Z,102030.50
2018-12-05T05:06:41.600Z,102029.63
2018-12-05T05:09:08.035Z,102032.76
2018-12-05T05:11:37.086Z,102034.36
2018-12-05T05:14:06.178Z,102036.89
2018-12-05T05:16:35.228Z,102042.39
2018-12-05T05:19:04.278Z,102046.34
2018-12-05T05:21:33.369Z,102046.66
2018-12-05T05:24:02.415Z,102050.67
2018-12-05T05:26:31.451Z,102052.33
2018-12-05T05:29:00.544Z,102057.59
2018-12-05T05:31:47.620Z,102055.50
2018-12-05T05:34:17.053Z,102054.11
2018-12-05T05:36:46.099Z,102064.56
2018-12-05T05:39:15.141Z,102063.49
2018-12-05T05:44:51.262Z,102071.55
2018-12-05T05:47:20.332Z,102068.75
2018-12-05T05:49:49.390Z,102079.63
2018-12-05T05:52:18.450Z,102088.34
2018-12-05T05:54:47.812Z,102079.91
2018-12-05T05:57:16.866Z,102081.52
2018-12-05T05:59:45.912Z,102083.61
2018-12-05T06:02:14.982Z,102089.44
2018-12-05T06:04:44.045Z,102096.03
2018-12-05T06:07:13.092Z,102098.45
2018-12-05T06:09:42.187Z,102094.31
2018-12-05T06:12:11.249Z,102096.52
2018-12-05T06:14:40.304Z,102099.13
2018-12-05T06:17:09.418Z,102101.88
2018-12-05T06:19:38.454Z,102096.89
2018-12-05T06:22:19.001Z,102101.05
2018-12-05T06:24:48.052Z,102105.16
2018-12-05T06:27:17.092Z,102113.95
2018-12-05T06:29:46.179Z,102118.80
2018-12-05T06:32:15.231Z,102126.23
2018-12-05T06:34:44.284Z,102128.72
2018-12-05T06:37:13.441Z,102132.42
2018-12-05T06:39:42.487Z,102133.10
2018-12-05T06:42:16.121Z,102132.59
2018-12-05T06:44:45.180Z,102138.55
2018-12-05T06:47:14.236Z,102138.27
2018-12-05T06:49:43.311Z,102144.93
2018-12-05T06:52:12.364Z,102147.56
2018-12-05T06:54:41.428Z,102155.34
2018-12-05T06:57:10.543Z,102151.28
2018-12-05T06:59:39.598Z,102166.39
2018-12-05T07:02:09.677Z,102168.42
2018-12-05T07:04:38.759Z,102166.55
2018-12-05T07:07:07.834Z,102171.81
2018-12-05T07:09:36.895Z,102181.80
2018-12-05T07:12:05.978Z,102177.65
2018-12-05T07:14:35.087Z,102175.28
2018-12-05T07:17:04.130Z,102177.07
2018-12-05T07:19:33.241Z,102192.17
2018-12-05T07:22:02.287Z,102191.75
2018-12-05T07:24:31.355Z,102202.97
2018-12-05T07:27:00.441Z,102205.03
2018-12-05T07:29:29.504Z,102203.54
2018-12-05T07:31:58.559Z,102207.84
2018-12-05T07:34:27.644Z,102217.36
2018-12-05T07:36:56.700Z,102225.64
2018-12-05T07:39:25.746Z,102224.71
2018-12-05T07:41:55.006Z,102218.95
2018-12-05T07:44:24.042Z,102223.89
2018-12-05T07:46:53.101Z,102220.64
2018-12-05T07:49:22.167Z,102222.73
2018-12-05T07:51:53.236Z,102217.19
2018-12-05T07:54:22.271Z,102217.98
2018-12-05T07:56:51.629Z,102224.56
2018-12-05T07:59:20.677Z,102227.13
2018-12-05T08:01:49.730Z,102237.52
2018-12-05T08:04:18.853Z,102238.32
2018-12-05T08:06:47.896Z,102249.59
2018-12-05T08:09:16.946Z,102247.33
2018-12-05T08:11:46.022Z,102255.28
2018-12-05T08:14:15.066Z,102254.52
2018-12-05T08:16:44.118Z,102267.70
2018-12-05T08:19:13.191Z,102260.84
2018-12-05T08:22:58.590Z,102267.95
2018-12-05T08:25:27.858Z,102271.55
2018-12-05T08:27:56.902Z,102274.27
2018-12-05T08:30:25.981Z,102274.28
2018-12-05T08:32:55.115Z,102281.33
2018-12-05T08:35:24.171Z,102281.38
2018-12-05T08:56:28.020Z,102301.77
2018-12-05T08:58:57.064Z,102309.82
2018-12-05T09:01:26.101Z,102315.53
2018-12-05T09:03:55.186Z,102318.91
2018-12-05T09:06:24.244Z,102318.59
2018-12-05T09:08:53.299Z,102326.75
2018-12-05T09:11:22.385Z,102336.60
2018-12-05T09:13:51.449Z,102332.39
2018-12-05T09:16:20.500Z,102335.73
2018-12-05T09:18:49.594Z,102336.50
2018-12-05T09:21:18.647Z,102324.77
2018-12-05T09:23:47.685Z,102340.86
2018-12-05T09:26:18.475Z,102339.59
2018-12-05T09:28:45.828Z,102342.45
2018-12-05T09:31:14.871Z,102341.16
2018-12-05T09:33:44.019Z,102335.68
2018-12-05T09:36:13.087Z,102348.48
2018-12-05T09:38:42.134Z,102352.98
2018-12-05T09:41:11.286Z,102348.83
2018-12-05T09:43:40.331Z,102355.23
2018-12-05T09:46:09.383Z,102356.18
2018-12-05T09:48:38.541Z,102360.95
2018-12-05T09:51:07.580Z,102370.20
2018-12-05T09:53:36.635Z,102370.58
2018-12-05T09:56:05.722Z,102368.23
2018-12-05T09:58:34.782Z,102380.50
2018-12-05T10:01:03.828Z,102377.09
2018-12-05T10:03:32.917Z,102374.27
2018-12-05T10:06:01.973Z,102383.72
2018-12-05T10:08:31.037Z,102379.66
2018-12-05T10:11:00.154Z,102386.25
2018-12-05T10:13:29.226Z,102386.81
2018-12-05T10:15:58.299Z,102393.77
2018-12-05T10:18:27.470Z,102396.80
2018-12-05T10:20:56.606Z,102390.49
2018-12-05T10:23:25.574Z,102397.18
2018-12-05T10:25:54.702Z,102392.72
2018-12-05T10:28:23.747Z,102397.13
2018-12-05T10:30:52.808Z,102402.62
2018-12-05T10:33:21.903Z,102406.09
2018-12-05T10:35:50.953Z,102407.19
2018-12-05T10:38:20.013Z,102422.16
2018-12-05T10:40:49.128Z,102419.70
2018-12-05T10:43:18.158Z,102425.69
2018-12-05T10:45:47.214Z,102419.89
2018-12-05T10:48:16.297Z,102424.14
2018-12-05T10:50:45.384Z,102428.72
2018-12-05T10:53:14.425Z,102428.30
2018-12-05T10:55:43.489Z,102432.47
2018-12-05T10:58:12.549Z,102424.87
2018-12-05T11:00:47.240Z,102435.44
2018-12-05T11:03:16.315Z,102433.50
2018-12-05T11:05:50.918Z,102435.20
2018-12-05T11:08:19.960Z,102435.52
2018-12-05T11:10:54.537Z,102434.38
2018-12-05T11:13:29.273Z,102428.86
2018-12-05T11:16:02.241Z,102429.55
2018-12-05T11:18:36.818Z,102423.70
2018-12-05T11:21:11.355Z,102431.61
2018-12-05T11:23:47.436Z,102435.73
2018-12-05T11:26:15.025Z,102425.27
2018-12-05T11:28:44.078Z,102430.84
2018-12-05T11:31:13.126Z,102427.54
2018-12-05T11:33:42.207Z,102430.46
2018-12-05T11:36:11.263Z,102429.45
2018-12-05T11:38:40.304Z,102425.78
2018-12-05T11:41:09.504Z,102433.72
2018-12-05T11:43:38.549Z,102423.95
2018-12-05T11:46:07.610Z,102426.20
2018-12-05T11:48:36.684Z,102431.31
2018-12-05T11:51:05.729Z,102436.73
2018-12-05T11:53:34.779Z,102434.49
2018-12-05T11:56:03.869Z,102437.34
2018-12-05T11:58:32.920Z,102443.94
2018-12-05T12:01:01.971Z,102445.09
2018-12-05T12:03:31.070Z,102446.38
2018-12-05T12:06:00.149Z,102445.22
2018-12-05T12:08:29.209Z,102441.25
2018-12-05T12:10:58.308Z,102444.64
2018-12-05T12:13:27.360Z,102443.34
2018-12-05T12:15:56.426Z,102451.96
2018-12-05T12:18:25.497Z,102455.09
2018-12-05T12:20:54.554Z,102457.93
2018-12-05T12:23:23.626Z,102468.59
2018-12-05T12:25:52.739Z,102466.22
2018-12-05T12:28:21.797Z,102468.95
2018-12-05T12:30:50.879Z,102477.17
2018-12-05T12:33:19.971Z,102479.02
2018-12-05T12:35:49.021Z,102478.70
2018-12-05T12:38:18.047Z,102469.20
2018-12-05T12:40:47.128Z,102480.73
2018-12-05T12:43:16.227Z,102475.36
2018-12-05T12:45:45.315Z,102483.63
2018-12-05T12:48:14.432Z,102478.34
2018-12-05T12:50:43.494Z,102479.22
2018-12-05T12:53:12.563Z,102491.86
2018-12-05T12:55:41.746Z,102499.38
2018-12-05T12:58:10.803Z,102492.94
2018-12-05T13:00:39.868Z,102497.08
2018-12-05T13:03:08.959Z,102501.59
2018-12-05T13:05:38.026Z,102493.47
2018-12-05T13:08:07.093Z,102496.86
2018-12-05T13:10:36.197Z,102498.13
2018-12-05T13:13:05.259Z,102495.14
2018-12-05T13:15:34.296Z,102496.95
2018-12-05T13:18:03.398Z,102505.98
2018-12-05T13:20:32.435Z,102510.27
2018-12-05T13:23:01.508Z,102503.47
2018-12-05T13:25:30.570Z,102509.11
2018-12-05T13:27:59.612Z,102508.28
2018-12-05T13:30:28.704Z,102509.33
2018-12-05T13:32:57.802Z,102507.91
2018-12-05T13:35:30.838Z,102508.68
2018-12-05T13:37:59.924Z,102513.38
2018-12-05T13:40:28.993Z,102511.80
2018-12-05T13:42:58.061Z,102517.96
2018-12-05T13:45:27.157Z,102516.30
2018-12-05T13:47:56.194Z,102516.21
2018-12-05T13:50:25.247Z,102517.06
2018-12-05T13:52:54.343Z,102515.31
2018-12-05T13:55:23.403Z,102514.77
2018-12-05T13:57:52.439Z,102518.43
2018-12-05T14:00:21.531Z,102524.80
2018-12-05T14:02:50.603Z,102519.89
2018-12-05T14:05:19.679Z,102523.35
2018-12-05T14:07:48.749Z,102525.63
2018-12-05T14:10:17.814Z,102528.34
2018-12-05T14:12:47.772Z,102527.58
2018-12-05T14:15:16.028Z,102522.42
2018-12-05T14:17:45.102Z,102524.39
2018-12-05T14:20:14.144Z,102518.50
2018-12-05T14:22:43.223Z,102516.98
2018-12-05T14:25:12.315Z,102516.25
2018-12-05T14:27:41.410Z,102518.11
2018-12-05T14:30:10.492Z,102519.09
2018-12-05T14:32:39.534Z,102527.86
2018-12-05T14:35:13.004Z,102527.77
2018-12-05T14:37:42.043Z,102525.39
2018-12-05T14:40:11.123Z,102519.53
2018-12-05T14:42:40.197Z,102527.84
2018-12-05T14:45:15.937Z,102530.84
2018-12-05T14:47:45.010Z,102532.67
2018-12-05T14:50:14.076Z,102542.47
2018-12-05T14:52:43.149Z,102545.95
2018-12-05T14:55:12.257Z,102542.71
2018-12-05T14:57:41.307Z,102544.06
2018-12-05T15:00:10.383Z,102545.92
2018-12-05T15:02:39.473Z,102548.67
2018-12-05T15:05:08.532Z,102549.81
2018-12-05T15:07:37.624Z,102553.87
2018-12-05T15:10:06.708Z,102552.16
2018-12-05T15:12:35.790Z,102548.91
2018-12-05T15:15:04.864Z,102553.04
2018-12-05T15:17:33.983Z,102548.77
2018-12-05T15:20:03.046Z,102545.45
2018-12-05T15:22:32.111Z,102546.89
2018-12-05T15:25:01.296Z,102551.60
2018-12-05T15:27:30.268Z,102548.08
2018-12-05T15:29:59.372Z,102559.18
2018-12-05T15:32:28.463Z,102557.59
2018-12-05T15:34:57.545Z,102551.62
2018-12-05T15:37:26.615Z,102554.27
2018-12-05T15:39:55.721Z,102556.67
2018-12-05T15:42:24.792Z,102560.66
2018-12-05T15:44:55.830Z,102562.61
2018-12-05T15:47:24.944Z,102557.72
2018-12-05T15:49:54.270Z,102558.91
2018-12-05T15:52:23.349Z,102557.28
2018-12-05T15:54:52.440Z,102562.72
2018-12-05T15:57:21.514Z,102562.70
2018-12-05T15:59:50.594Z,102557.74
2018-12-05T16:02:20.014Z,102555.69
2018-12-05T16:04:49.107Z,102563.27
2018-12-05T16:07:18.172Z,102558.85
2018-12-05T16:09:47.276Z,102553.48
2018-12-05T16:12:16.351Z,102552.75
2018-12-05T16:14:45.435Z,102562.95
2018-12-05T16:17:14.543Z,102560.91
2018-12-05T16:19:43.603Z,102564.33
2018-12-05T16:22:12.677Z,102562.25
2018-12-05T16:24:41.809Z,102566.31
2018-12-05T16:27:10.871Z,102568.47
2018-12-05T16:29:39.953Z,102569.11
2018-12-05T16:32:09.062Z,102568.18
2018-12-05T16:34:38.133Z,102582.06
2018-12-05T16:37:07.216Z,102581.70
2018-12-05T16:39:36.313Z,102582.96
2018-12-05T16:42:05.392Z,102593.39
2018-12-05T16:44:34.452Z,102596.96
2018-12-05T16:47:03.719Z,102599.28
2018-12-05T16:49:32.793Z,102599.40
2018-12-05T16:52:01.867Z,102599.94
2018-12-05T16:54:30.959Z,102599.26
2018-12-05T16:57:00.024Z,102598.61
2018-12-05T16:59:29.088Z,102601.28
2018-12-05T17:01:58.190Z,102596.64
2018-12-05T17:04:27.254Z,102601.47
2018-12-05T17:06:56.316Z,102595.48
2018-12-05T17:09:26.246Z,102601.34
2018-12-05T17:11:54.575Z,102603.33
2018-12-05T17:14:23.577Z,102598.16
2018-12-05T17:16:52.704Z,102603.44
2018-12-05T17:19:21.777Z,102600.63
2018-12-05T17:21:50.855Z,102601.59
2018-12-05T17:24:19.949Z,102601.47
2018-12-05T17:26:49.041Z,102603.83
2018-12-05T17:29:18.121Z,102609.39
2018-12-05T17:31:47.415Z,102604.89
2018-12-05T17:34:16.498Z,102610.38
2018-12-05T17:36:45.589Z,102618.67
2018-12-05T17:39:14.682Z,102626.50
2018-12-05T17:41:43.748Z,102634.42
2018-12-05T17:44:12.838Z,102631.62
2018-12-05T17:46:41.922Z,102625.48
2018-12-05T17:49:10.979Z,102624.08
2018-12-05T17:51:40.042Z,102618.98
2018-12-05T17:54:14.743Z,102621.23
2018-12-05T17:56:38.228Z,102626.08
2018-12-05T17:59:07.300Z,102622.14
2018-12-05T18:01:36.411Z,102618.88
2018-12-05T18:04:05.529Z,102614.25
2018-12-05T18:06:34.633Z,102614.34
2018-12-05T18:09:03.738Z,102608.89
2018-12-05T18:11:32.900Z,102606.65
2018-12-05T18:14:02.901Z,102608.02
2018-12-05T18:16:31.795Z,102610.80
2018-12-05T18:19:00.862Z,102611.02
2018-12-05T18:21:29.941Z,102609.11
2018-12-05T18:23:59.084Z,102605.95
2018-12-05T18:26:28.136Z,102602.30
2018-12-05T18:28:57.199Z,102595.77
2018-12-05T18:31:26.287Z,102604.66
2018-12-05T18:33:55.381Z,102599.44
2018-12-05T18:36:24.459Z,102601.70
2018-12-05T18:38:53.578Z,102600.41
2018-12-05T18:41:22.663Z,102606.37
2018-12-05T18:43:51.719Z,102604.48
2018-12-05T18:46:20.834Z,102611.11
2018-12-05T18:48:49.913Z,102605.66
2018-12-05T18:51:19.016Z,102596.10
2018-12-05T18:53:48.141Z,102607.51
2018-12-05T18:56:17.233Z,102605.52
2018-12-05T18:58:46.317Z,102611.00
2018-12-05T19:01:15.459Z,102609.08
2018-12-05T19:03:44.534Z,102602.39
2018-12-05T19:06:13.752Z,102597.49
2018-12-05T19:08:42.844Z,102603.36
2018-12-05T19:11:11.922Z,102607.67
2018-12-05T19:13:46.515Z,102599.14
2018-12-05T19:16:15.576Z,102601.58
2018-12-05T19:18:44.778Z,102599.48
2018-12-05T19:21:13.906Z,102598.38
2018-12-05T19:23:42.999Z,102595.03
2018-12-05T19:26:12.068Z,102593.34
2018-12-05T19:28:41.168Z,102598.10
2018-12-05T19:31:10.264Z,102598.44
2018-12-05T19:33:39.357Z,102598.06
2018-12-05T19:36:08.471Z,102606.28
2018-12-05T19:38:37.581Z,102603.08
2018-12-05T19:41:06.645Z,102610.18
2018-12-05T19:43:36.081Z,102610.13
2018-12-05T19:46:05.177Z,102610.47
2018-12-05T19:48:34.245Z,102607.36
2018-12-05T19:51:03.338Z,102610.09
2018-12-05T19:53:32.435Z,102616.23
2018-12-05T19:56:01.542Z,102610.09
2018-12-05T19:58:30.661Z,102615.88
2018-12-05T20:00:59.758Z,102622.83
2018-12-05T20:03:28.836Z,102618.48
2018-12-05T20:05:57.965Z,102611.06
2018-12-05T20:08:27.045Z,102617.07
2018-12-05T20:10:56.139Z,102619.13
2018-12-05T20:13:25.237Z,102617.03
2018-12-05T20:15:54.323Z,102619.16
2018-12-05T20:18:23.433Z,102624.66
2018-12-05T20:20:52.532Z,102629.36
2018-12-05T20:23:21.608Z,102627.47
2018-12-05T20:25:50.674Z,102621.14
2018-12-05T20:28:19.918Z,102618.62
2018-12-05T20:30:49.017Z,102624.19
2018-12-05T20:33:18.096Z,102629.87
2018-12-05T20:35:47.285Z,102627.48
2018-12-05T20:38:16.353Z,102623.11
2018-12-05T20:40:45.422Z,102621.06
2018-12-05T20:43:14.533Z,102629.14
2018-12-05T20:45:43.627Z,102625.61
2018-12-05T20:48:12.754Z,102631.41
2018-12-05T20:50:41.981Z,102625.33
2018-12-05T20:53:11.106Z,102627.44
2018-12-05T20:55:40.175Z,102621.48
2018-12-05T20:58:09.262Z,102630.33
2018-12-05T21:00:38.324Z,102623.75
2018-12-05T21:03:07.397Z,102624.65
2018-12-05T21:05:36.523Z,102619.72
2018-12-05T21:08:05.559Z,102612.80
2018-12-05T21:10:34.627Z,102605.72
2018-12-05T21:13:03.738Z,102603.90
2018-12-05T21:15:32.857Z,102605.02
2018-12-05T21:18:01.943Z,102606.48
2018-12-05T21:20:31.048Z,102609.00
2018-12-05T21:23:00.112Z,102611.71
2018-12-05T21:25:29.164Z,102608.06
2018-12-05T21:27:58.250Z,102604.35
2018-12-05T21:30:27.313Z,102605.20
2018-12-05T21:32:56.357Z,102606.10
2018-12-05T21:35:35.291Z,102608.75
2018-12-05T21:38:04.364Z,102602.34
2018-12-05T21:40:33.431Z,102596.54
2018-12-05T21:43:02.516Z,102597.20
2018-12-05T21:45:31.568Z,102592.83
2018-12-05T21:48:00.636Z,102592.56
2018-12-05T21:50:29.729Z,102586.02
2018-12-05T21:52:58.797Z,102585.25
2018-12-05T21:55:27.855Z,102582.06
2018-12-05T21:57:57.661Z,102590.94
2018-12-05T22:00:26.045Z,102591.06
2018-12-05T22:02:55.116Z,102590.88
2018-12-05T22:05:24.197Z,102590.00
2018-12-05T22:07:53.264Z,102593.20
2018-12-05T22:10:22.316Z,102585.86
2018-12-05T22:12:51.398Z,102592.23
2018-12-05T22:15:20.459Z,102583.05
2018-12-05T22:17:49.518Z,102579.47
2018-12-05T22:20:18.656Z,102573.44
2018-12-05T22:22:47.706Z,102575.48
2018-12-05T22:25:21.030Z,102564.94
2018-12-05T22:27:50.088Z,102557.61
2018-12-05T22:30:19.133Z,102550.39
2018-12-05T22:32:48.215Z,102558.86
2018-12-05T22:35:17.274Z,102559.54
2018-12-05T22:37:46.321Z,102556.28
2018-12-05T22:40:15.523Z,102558.06
2018-12-05T22:42:44.584Z,102561.69
2018-12-05T22:45:19.490Z,102561.36
2018-12-05T22:47:48.553Z,102560.59
2018-12-05T22:50:17.613Z,102552.39
2018-12-05T22:52:46.697Z,102552.30
2018-12-05T22:55:15.762Z,102543.70
2018-12-05T22:57:44.801Z,102538.80
2018-12-05T23:00:13.928Z,102542.70
2018-12-05T23:02:43.001Z,102544.05
2018-12-05T23:05:15.710Z,102547.58
2018-12-05T23:07:44.717Z,102542.74
2018-12-05T23:10:13.778Z,102542.53
2018-12-05T23:12:42.860Z,102544.23
2018-12-05T23:15:11.906Z,102539.27
2018-12-05T23:17:40.962Z,102543.95
2018-12-05T23:20:10.081Z,102550.64
2018-12-05T23:22:39.124Z,102548.80
2018-12-05T23:25:13.539Z,102543.66
2018-12-05T23:27:42.601Z,102541.27
2018-12-05T23:30:11.666Z,102538.89
2018-12-05T23:32:40.825Z,102535.68
2018-12-05T23:35:09.886Z,102532.00
2018-12-05T23:37:38.964Z,102526.82
2018-12-05T23:40:08.102Z,102516.38
2018-12-05T23:42:37.143Z,102513.30
2018-12-05T23:45:11.318Z,102508.13
2018-12-05T23:47:40.370Z,102511.69
2018-12-05T23:50:09.443Z,102507.80
2018-12-05T23:52:38.529Z,102511.67
2018-12-05T23:55:07.581Z,102514.34
2018-12-05T23:57:36.635Z,102510.26
